Time;durP1;ratioP1;P1;durP2;ratioP2;P2;SDS_P1;SDS_P2;PMS_P1;PMS_P2;Temp;Humidity;BMP_temperature;BMP_pressure;BME280_temperature;BME280_humidity;BME280_pressure;Samples;Min_cycle;Max_cycle;Signal;HPM_P1;HPM_P2
2024/02/09 00:00:57;;;;;;;0.50;0.50;;;6.10;98.60;;;;;;5033729;28;20048;-74
2024/02/09 00:03:26;;;;;;;1.48;1.08;;;6.20;98.10;;;;;;5031649;28;20025;-75
2024/02/09 00:05:53;;;;;;;2.20;1.10;;;6.20;98.40;;;;;;5038803;28;20048;-74
2024/02/09 00:08:22;;;;;;;1.45;0.93;;;6.10;98.50;;;;;;5045662;28;20427;-74
2024/02/09 00:10:49;;;;;;;1.17;1.08;;;6.00;98.20;;;;;;5031916;28;20033;-75
2024/02/09 00:13:15;;;;;;;1.92;1.35;;;6.10;98.40;;;;;;5018928;28;20067;-75
2024/02/09 00:15:45;;;;;;;1.15;1.05;;;6.10;98.10;;;;;;5032471;28;20037;-74
2024/02/09 00:18:12;;;;;;;0.85;0.85;;;6.20;98.30;;;;;;5027177;28;20034;-74
2024/02/09 00:20:38;;;;;;;1.98;1.40;;;6.20;98.40;;;;;;5021081;28;20091;-74
2024/02/09 00:23:04;;;;;;;2.33;1.77;;;6.20;98.10;;;;;;5034243;28;20021;-74
2024/02/09 00:25:31;;;;;;;0.80;0.80;;;6.20;98.60;;;;;;5029361;28;20029;-74
2024/02/09 00:27:56;;;;;;;1.23;1.13;;;6.10;98.30;;;;;;5034844;28;20037;-75
2024/02/09 00:30:24;;;;;;;1.15;1.05;;;6.20;98.30;;;;;;5039029;28;20021;-74
2024/02/09 00:32:51;;;;;;;0.90;0.90;;;6.10;98.40;;;;;;5030911;28;20112;-74
2024/02/09 00:35:17;;;;;;;0.65;0.65;;;6.10;98.20;;;;;;5029045;28;20067;-74
2024/02/09 00:37:43;;;;;;;0.80;0.80;;;6.10;98.20;;;;;;5037832;28;20029;-74
2024/02/09 00:40:10;;;;;;;2.50;1.20;;;6.10;98.40;;;;;;5028166;28;20869;-74
2024/02/09 00:42:35;;;;;;;0.95;0.93;;;6.10;98.30;;;;;;5043541;28;20033;-75
2024/02/09 00:45:02;;;;;;;0.60;0.60;;;6.30;98.30;;;;;;5034639;28;20535;-74
2024/02/09 00:47:30;;;;;;;1.20;1.13;;;6.30;97.90;;;;;;5037136;28;20053;-74
2024/02/09 00:49:57;;;;;;;0.88;0.88;;;6.30;98.00;;;;;;5027871;28;20029;-74
2024/02/09 00:52:24;;;;;;;1.00;1.00;;;6.30;97.80;;;;;;5028157;28;20077;-74
2024/02/09 00:54:50;;;;;;;1.27;1.17;;;6.20;98.10;;;;;;5038350;28;20048;-74
2024/02/09 00:57:19;;;;;;;0.63;0.63;;;6.10;98.20;;;;;;5025623;28;20409;-74
2024/02/09 00:59:46;;;;;;;0.68;0.68;;;6.10;98.40;;;;;;5027243;28;20037;-74
2024/02/09 01:02:11;;;;;;;0.63;0.63;;;6.10;98.30;;;;;;5032773;28;20481;-75
2024/02/09 01:04:38;;;;;;;0.80;0.80;;;6.20;98.00;;;;;;5026575;28;20074;-75
2024/02/09 01:07:04;;;;;;;0.63;0.63;;;6.20;98.00;;;;;;5035456;28;20100;-75
2024/02/09 01:09:32;;;;;;;0.70;0.70;;;6.20;98.10;;;;;;5040201;28;20061;-74
2024/02/09 01:11:59;;;;;;;0.70;0.70;;;6.20;98.40;;;;;;5031967;28;20048;-74
2024/02/09 02:45:02;;;;;;;1.30;1.20;;;6.00;98.60;;;;;;5030155;28;20033;-75
2024/02/09 02:47:29;;;;;;;0.80;0.80;;;6.20;98.50;;;;;;5051291;28;20017;-75
2024/02/09 03:04:18;;;;;;;1.23;1.13;;;6.10;98.60;;;;;;5031035;28;20040;-75
2024/02/09 03:06:34;;;;;;;1.13;0.98;;;6.10;98.80;;;;;;5031160;28;20045;-75
2024/02/09 03:09:00;;;;;;;1.45;1.35;;;6.20;98.50;;;;;;5031323;28;20038;-74
2024/02/09 03:11:25;;;;;;;1.33;1.23;;;6.30;98.40;;;;;;5039116;28;20091;-74
2024/02/09 03:13:51;;;;;;;0.80;0.80;;;6.20;98.10;;;;;;5038372;28;20033;-75
2024/02/09 03:16:17;;;;;;;1.30;1.20;;;6.20;98.40;;;;;;5029751;28;20056;-75
2024/02/09 03:18:46;;;;;;;1.15;1.15;;;6.30;98.40;;;;;;5037601;28;20029;-74
2024/02/09 03:21:25;;;;;;;1.40;1.30;;;6.30;98.20;;;;;;5039398;28;20037;-75
2024/02/09 03:23:53;;;;;;;2.15;1.30;;;6.30;98.40;;;;;;5036262;28;20033;-74
2024/02/09 03:26:22;;;;;;;0.82;0.77;;;6.20;98.10;;;;;;5028560;28;20108;-75
2024/02/09 03:28:49;;;;;;;0.55;0.55;;;6.30;98.30;;;;;;5031190;28;20049;-75
2024/02/09 03:31:15;;;;;;;1.55;1.45;;;6.20;98.60;;;;;;5034148;28;20528;-75
2024/02/09 03:33:42;;;;;;;1.33;1.23;;;6.30;98.50;;;;;;5035429;28;20065;-75
2024/02/09 03:36:09;;;;;;;1.73;1.25;;;6.20;98.40;;;;;;5037845;28;20028;-75
2024/02/09 03:38:37;;;;;;;1.38;1.27;;;6.20;98.50;;;;;;5035208;28;20025;-73
2024/02/09 03:41:03;;;;;;;1.27;1.17;;;6.40;98.20;;;;;;5029117;28;20400;-73
2024/02/09 03:43:29;;;;;;;1.65;1.30;;;6.40;98.30;;;;;;5033901;28;20474;-73
2024/02/09 03:45:54;;;;;;;1.30;1.20;;;6.40;98.10;;;;;;5038822;28;20040;-73
2024/02/09 03:48:20;;;;;;;0.77;0.77;;;6.30;98.20;;;;;;5035120;28;20105;-73
2024/02/09 03:50:46;;;;;;;0.77;0.77;;;6.40;98.30;;;;;;5028656;28;20468;-73
2024/02/09 03:53:14;;;;;;;0.90;0.90;;;6.50;98.30;;;;;;5035282;28;20071;-74
2024/02/09 03:55:40;;;;;;;1.63;1.08;;;6.40;97.90;;;;;;5035764;28;20041;-74
2024/02/09 03:58:06;;;;;;;1.00;1.00;;;6.40;98.20;;;;;;5036009;28;20026;-73
2024/02/09 04:00:32;;;;;;;1.15;1.08;;;6.40;97.90;;;;;;5036757;28;20497;-73
2024/02/09 04:02:58;;;;;;;1.15;1.10;;;6.30;98.40;;;;;;5029187;28;20034;-73
2024/02/09 04:05:23;;;;;;;0.50;0.50;;;6.30;98.20;;;;;;5035977;28;20052;-73
2024/02/09 04:07:50;;;;;;;0.80;0.80;;;6.30;98.40;;;;;;5032351;28;20041;-73
2024/02/09 04:10:19;;;;;;;0.90;0.90;;;6.30;98.20;;;;;;5036338;28;20037;-73
2024/02/09 04:12:45;;;;;;;0.85;0.85;;;6.30;98.60;;;;;;5036134;28;20029;-73
2024/02/09 04:15:11;;;;;;;1.63;1.15;;;6.20;98.50;;;;;;5026593;28;20099;-73
2024/02/09 04:17:37;;;;;;;1.73;0.63;;;6.20;98.60;;;;;;5031278;28;20034;-75
2024/02/09 04:20:04;;;;;;;0.93;0.93;;;6.30;98.50;;;;;;5034319;28;20038;-74
2024/02/09 04:22:30;;;;;;;0.70;0.70;;;6.30;98.50;;;;;;5023519;28;20030;-74
2024/02/09 04:24:57;;;;;;;0.80;0.80;;;6.30;98.50;;;;;;5029494;28;20131;-74
2024/02/09 04:27:22;;;;;;;0.55;0.55;;;6.40;98.50;;;;;;5030218;28;20113;-74
2024/02/09 04:29:49;;;;;;;0.63;0.63;;;6.40;98.30;;;;;;5031801;28;20120;-74
2024/02/09 04:32:15;;;;;;;0.70;0.70;;;6.40;98.40;;;;;;5028781;28;20688;-74
2024/02/09 04:34:41;;;;;;;0.40;0.40;;;6.40;98.30;;;;;;5039561;28;20037;-74
2024/02/09 04:37:06;;;;;;;0.60;0.60;;;6.40;98.30;;;;;;5028674;28;20516;-74
2024/02/09 04:39:32;;;;;;;1.35;0.70;;;6.50;98.20;;;;;;5044942;28;20041;-74
2024/02/09 04:41:58;;;;;;;0.68;0.68;;;6.50;98.20;;;;;;5041957;28;20481;-74
2024/02/09 04:44:24;;;;;;;0.60;0.60;;;6.50;98.10;;;;;;5044190;28;20495;-74
2024/02/09 04:46:50;;;;;;;0.60;0.60;;;6.50;98.20;;;;;;5039228;28;20037;-74
2024/02/09 04:49:16;;;;;;;0.70;0.70;;;6.50;98.10;;;;;;5029852;28;20036;-74
2024/02/09 04:51:43;;;;;;;0.93;0.60;;;6.40;98.20;;;;;;5026715;28;20033;-74
2024/02/09 04:54:09;;;;;;;0.65;0.65;;;6.40;98.30;;;;;;5046155;28;20118;-74
2024/02/09 04:56:39;;;;;;;0.90;0.90;;;6.30;98.30;;;;;;5030852;28;20046;-74
2024/02/09 04:59:10;;;;;;;0.90;0.90;;;6.30;98.60;;;;;;5047341;28;20542;-74
2024/02/09 05:01:40;;;;;;;0.90;0.90;;;6.40;98.40;;;;;;5042147;28;20068;-75
2024/02/09 05:04:09;;;;;;;0.80;0.80;;;6.40;98.50;;;;;;5037497;28;20384;-73
2024/02/09 05:06:34;;;;;;;0.40;0.40;;;6.60;98.40;;;;;;5029863;28;20112;-74
2024/02/09 05:09:03;;;;;;;0.70;0.70;;;6.50;98.10;;;;;;5027904;28;20179;-74
2024/02/09 05:11:30;;;;;;;0.40;0.40;;;6.50;98.10;;;;;;5037531;28;20065;-74
2024/02/09 05:13:59;;;;;;;0.75;0.75;;;6.50;98.30;;;;;;5037336;28;20116;-74
2024/02/09 05:16:27;;;;;;;0.63;0.63;;;6.50;98.20;;;;;;5027162;28;20577;-74
2024/02/09 05:18:53;;;;;;;0.93;0.93;;;6.50;98.00;;;;;;5035593;28;20025;-74
2024/02/09 05:21:19;;;;;;;1.50;1.40;;;6.60;98.30;;;;;;5024929;28;20045;-74
2024/02/09 05:23:44;;;;;;;1.77;0.88;;;6.60;98.20;;;;;;5037701;28;20484;-74
2024/02/09 05:26:12;;;;;;;0.80;0.80;;;6.60;98.00;;;;;;5036739;28;20048;-74
2024/02/09 05:28:40;;;;;;;1.23;1.13;;;6.60;97.80;;;;;;5028030;28;20393;-74
2024/02/09 05:31:12;;;;;;;0.88;0.88;;;6.50;98.10;;;;;;5035159;28;20087;-74
2024/02/09 05:33:37;;;;;;;0.70;0.70;;;6.60;98.20;;;;;;5023268;28;20028;-74
2024/02/09 05:36:04;;;;;;;0.63;0.63;;;6.60;98.20;;;;;;5045359;28;20140;-74
2024/02/09 05:38:32;;;;;;;1.00;0.95;;;6.60;98.20;;;;;;5041652;28;20017;-74
2024/02/09 05:40:58;;;;;;;1.63;1.33;;;6.60;98.20;;;;;;5026397;28;20567;-74
2024/02/09 05:43:24;;;;;;;0.85;0.70;;;6.70;98.10;;;;;;5028452;28;20032;-75
2024/02/09 05:45:49;;;;;;;1.05;1.00;;;6.70;98.10;;;;;;5027749;28;20045;-75
2024/02/09 05:48:15;;;;;;;0.80;0.80;;;6.60;97.90;;;;;;5036186;28;20086;-74
2024/02/09 05:50:41;;;;;;;2.30;1.10;;;6.70;98.20;;;;;;5029964;28;20064;-74
2024/02/09 05:53:07;;;;;;;0.93;0.88;;;6.60;98.10;;;;;;5028720;28;20146;-74
2024/02/09 05:55:34;;;;;;;1.08;0.98;;;6.70;98.10;;;;;;5028618;28;20029;-74
2024/02/09 05:58:00;;;;;;;0.70;0.70;;;6.70;98.00;;;;;;5034233;28;20457;-74
2024/02/09 06:00:26;;;;;;;2.40;1.20;;;6.60;98.00;;;;;;5034530;28;20063;-74
2024/02/09 06:02:53;;;;;;;1.98;1.40;;;6.50;98.30;;;;;;5029896;28;20512;-74
2024/02/09 06:05:22;;;;;;;1.25;1.00;;;6.50;98.60;;;;;;5029186;28;20033;-74
2024/02/09 06:07:48;;;;;;;0.70;0.70;;;6.50;98.30;;;;;;5030878;28;20033;-75
2024/02/09 06:10:14;;;;;;;0.70;0.68;;;6.60;98.50;;;;;;5032097;28;20038;-76
2024/02/09 06:12:41;;;;;;;1.02;0.93;;;6.70;98.40;;;;;;5032261;28;20433;-74
2024/02/09 06:15:10;;;;;;;1.98;1.30;;;6.70;98.30;;;;;;5031884;28;20044;-75
2024/02/09 06:17:38;;;;;;;0.90;0.75;;;6.60;98.20;;;;;;5031792;28;20033;-74
2024/02/09 06:20:05;;;;;;;1.48;1.20;;;6.60;98.20;;;;;;5020000;28;20044;-74
2024/02/09 06:22:31;;;;;;;1.85;1.60;;;6.50;98.40;;;;;;5032070;28;20080;-74
2024/02/09 06:24:57;;;;;;;0.80;0.70;;;6.60;98.50;;;;;;5031968;28;20072;-75
2024/02/09 06:27:24;;;;;;;1.08;0.98;;;6.60;98.30;;;;;;5036556;28;20033;-72
2024/02/09 06:29:52;;;;;;;1.23;1.08;;;6.60;98.30;;;;;;5036423;28;20165;-74
2024/02/09 06:32:19;;;;;;;1.95;1.63;;;6.70;98.40;;;;;;5040612;28;20036;-73
2024/02/09 06:34:45;;;;;;;1.52;1.27;;;6.80;98.40;;;;;;5037716;28;20515;-73
2024/02/09 06:37:10;;;;;;;1.70;1.40;;;6.80;98.20;;;;;;5042401;28;20068;-73
2024/02/09 06:39:36;;;;;;;1.95;1.02;;;6.80;98.20;;;;;;5028265;28;20043;-73
2024/02/09 06:42:02;;;;;;;1.95;1.40;;;6.70;98.20;;;;;;5032402;28;20563;-73
2024/02/09 06:44:32;;;;;;;1.30;1.20;;;6.70;98.40;;;;;;5032145;28;20025;-73
2024/02/09 06:46:59;;;;;;;1.63;1.40;;;6.60;98.50;;;;;;5022624;28;20096;-73
2024/02/09 06:49:28;;;;;;;2.28;1.50;;;6.50;98.60;;;;;;5031823;28;20400;-72
2024/02/09 06:51:54;;;;;;;1.08;0.93;;;6.60;98.80;;;;;;5031226;28;20595;-73
2024/02/09 06:54:22;;;;;;;3.40;2.22;;;6.70;98.50;;;;;;5036731;28;20246;-73
2024/02/09 06:56:48;;;;;;;4.28;2.70;;;6.80;98.50;;;;;;5043385;28;20049;-73
2024/02/09 06:59:14;;;;;;;2.58;1.88;;;6.80;98.20;;;;;;5031170;28;20041;-73
2024/02/09 07:01:41;;;;;;;2.42;1.90;;;6.90;98.30;;;;;;5031229;28;20084;-74
2024/02/09 07:04:08;;;;;;;2.05;1.20;;;6.80;98.20;;;;;;5031849;28;20069;-73
2024/02/09 07:06:34;;;;;;;1.83;1.25;;;6.80;98.10;;;;;;5036187;28;20072;-72
2024/02/09 07:09:00;;;;;;;3.35;2.45;;;6.80;98.50;;;;;;5042290;28;20441;-73
2024/02/09 07:11:25;;;;;;;1.33;1.23;;;6.80;98.50;;;;;;5032056;28;20488;-73
2024/02/09 07:13:51;;;;;;;2.45;1.58;;;6.80;98.30;;;;;;5031374;28;20469;-73
2024/02/09 07:16:19;;;;;;;1.65;1.48;;;6.70;98.30;;;;;;5032731;28;20039;-75
2024/02/09 07:18:45;;;;;;;2.22;1.60;;;6.80;98.50;;;;;;5031200;28;20048;-73
2024/02/09 07:21:14;;;;;;;2.63;1.55;;;6.80;98.50;;;;;;5032305;28;20489;-74
2024/02/09 07:23:40;;;;;;;2.22;1.45;;;6.70;98.40;;;;;;5040102;28;20048;-74
2024/02/09 07:26:09;;;;;;;0.80;0.80;;;6.80;98.30;;;;;;5045470;28;20042;-74
2024/02/09 07:28:35;;;;;;;1.45;0.65;;;6.90;98.50;;;;;;5031014;28;20033;-74
2024/02/09 07:31:01;;;;;;;2.35;1.80;;;6.90;98.40;;;;;;5036444;28;20030;-75
2024/02/09 07:33:27;;;;;;;6.25;2.53;;;7.00;98.30;;;;;;5032609;28;20033;-76
2024/02/09 07:35:53;;;;;;;0.95;0.85;;;7.00;98.20;;;;;;5029345;28;20029;-76
2024/02/09 07:38:18;;;;;;;3.35;2.40;;;7.10;98.20;;;;;;5025175;28;20465;-76
2024/02/09 07:40:44;;;;;;;2.47;1.05;;;7.10;98.20;;;;;;5030459;28;20122;-73
2024/02/09 07:43:10;;;;;;;2.15;1.75;;;7.10;98.00;;;;;;5029520;28;20038;-74
2024/02/09 07:45:35;;;;;;;1.33;1.10;;;7.10;98.10;;;;;;5031699;28;20032;-76
2024/02/09 07:48:05;;;;;;;2.28;1.63;;;7.10;98.10;;;;;;5032899;28;20060;-75
2024/02/09 07:50:30;;;;;;;1.85;1.50;;;7.10;98.00;;;;;;5029383;28;20095;-76
2024/02/09 07:52:56;;;;;;;1.13;1.00;;;7.10;98.10;;;;;;5030860;28;20029;-76
2024/02/09 07:55:24;;;;;;;4.68;2.63;;;7.00;98.20;;;;;;5029215;28;20500;-74
2024/02/09 07:57:50;;;;;;;3.95;2.60;;;7.10;98.60;;;;;;5030157;28;20056;-77
2024/02/09 08:00:20;;;;;;;4.40;3.00;;;7.20;98.20;;;;;;5030523;28;20785;-76
2024/02/09 08:02:46;;;;;;;2.92;2.00;;;7.20;98.00;;;;;;5039368;28;20071;-77
2024/02/09 08:05:18;;;;;;;3.05;2.30;;;7.30;98.00;;;;;;5036756;28;20567;-76
2024/02/09 08:07:47;;;;;;;1.48;1.38;;;7.30;97.80;;;;;;5027136;28;20390;-76
2024/02/09 08:10:13;;;;;;;4.15;2.53;;;7.40;97.90;;;;;;5040745;28;20037;-76
2024/02/09 08:12:40;;;;;;;0.75;0.73;;;7.30;97.90;;;;;;5022022;28;20484;-76
2024/02/09 08:15:09;;;;;;;4.35;1.98;;;7.30;97.80;;;;;;5036117;28;20029;-76
2024/02/09 08:17:36;;;;;;;2.85;1.70;;;7.30;97.90;;;;;;5021809;28;20052;-76
2024/02/09 08:20:04;;;;;;;2.88;1.65;;;7.20;97.80;;;;;;5038104;28;20480;-76
2024/02/09 08:22:32;;;;;;;5.43;3.15;;;7.20;98.10;;;;;;5027169;28;20057;-76
2024/02/09 08:24:59;;;;;;;2.28;1.48;;;7.30;98.20;;;;;;5023327;28;20045;-76
2024/02/09 08:27:25;;;;;;;1.58;0.77;;;7.40;98.00;;;;;;5029877;28;20121;-76
2024/02/09 08:29:55;;;;;;;2.75;2.17;;;7.40;97.90;;;;;;5031195;28;20073;-76
2024/02/09 08:32:22;;;;;;;3.28;1.77;;;7.40;97.90;;;;;;5039284;28;20480;-76
2024/02/09 08:34:51;;;;;;;3.97;2.75;;;7.40;97.80;;;;;;5034648;28;20037;-76
2024/02/09 08:37:19;;;;;;;5.22;3.30;;;7.40;97.90;;;;;;5038094;28;20151;-75
2024/02/09 08:39:49;;;;;;;1.40;0.98;;;7.50;98.00;;;;;;5034826;28;20045;-76
2024/02/09 08:42:15;;;;;;;5.55;3.53;;;7.40;97.90;;;;;;5036859;28;20049;-76
2024/02/09 08:44:41;;;;;;;3.65;2.20;;;7.50;98.00;;;;;;5034233;28;20049;-76
2024/02/09 08:49:46;;;;;;;4.70;2.42;;;7.50;97.90;;;;;;5085770;28;20117;-74
2024/02/09 08:52:12;;;;;;;3.88;2.17;;;7.50;97.80;;;;;;5093543;28;20233;-74
2024/02/09 08:54:38;;;;;;;1.50;1.38;;;7.50;98.00;;;;;;5093289;28;20036;-74
2024/02/09 08:57:04;;;;;;;4.95;3.45;;;7.60;97.90;;;;;;5089598;28;20480;-77
2024/02/09 08:59:30;;;;;;;5.72;3.65;;;7.60;97.80;;;;;;5088626;28;20073;-75
2024/02/09 09:01:58;;;;;;;4.57;3.03;;;7.60;97.90;;;;;;5093912;28;20032;-75
2024/02/09 09:04:24;;;;;;;6.15;3.10;;;7.70;97.80;;;;;;5094684;28;20047;-75
2024/02/09 09:06:49;;;;;;;3.38;2.33;;;7.70;97.80;;;;;;5085151;28;20479;-74
2024/02/09 09:09:15;;;;;;;1.58;1.02;;;7.70;97.80;;;;;;5086682;28;20032;-75
2024/02/09 09:11:42;;;;;;;10.25;2.50;;;7.70;97.90;;;;;;5083907;28;20111;-75
2024/02/09 09:14:11;;;;;;;4.07;1.98;;;7.70;97.80;;;;;;5084883;28;20730;-75
2024/02/09 09:16:40;;;;;;;3.85;2.13;;;7.70;97.70;;;;;;5085931;28;20029;-75
2024/02/09 09:19:08;;;;;;;3.63;2.30;;;7.70;97.90;;;;;;5084644;28;20036;-75
2024/02/09 09:21:37;;;;;;;6.75;3.33;;;7.70;97.90;;;;;;5101365;28;20028;-75
2024/02/09 09:24:06;;;;;;;4.68;3.05;;;7.80;98.00;;;;;;5091172;28;20084;-75
2024/02/09 09:26:32;;;;;;;1.52;1.25;;;7.80;97.90;;;;;;5083329;28;20119;-75
2024/02/09 09:28:58;;;;;;;4.90;2.85;;;7.90;97.80;;;;;;5084932;28;20066;-75
2024/02/09 09:31:26;;;;;;;2.10;1.60;;;7.70;97.80;;;;;;5095227;28;20085;-75
2024/02/09 09:33:55;;;;;;;4.40;2.70;;;7.80;97.90;;;;;;5099049;28;20054;-75
2024/02/09 09:36:21;;;;;;;7.55;4.18;;;7.80;98.10;;;;;;5094256;28;20824;-75
2024/02/09 09:38:46;;;;;;;6.20;3.58;;;7.90;97.80;;;;;;5098764;28;20111;-75
2024/02/09 09:41:12;;;;;;;3.72;2.53;;;7.90;97.80;;;;;;5087409;28;20482;-75
2024/02/09 09:43:39;;;;;;;3.00;2.08;;;7.90;97.80;;;;;;5087148;28;20126;-75
2024/02/09 09:46:08;;;;;;;2.75;1.77;;;7.90;97.80;;;;;;5097902;28;20077;-75
2024/02/09 09:48:35;;;;;;;3.85;2.33;;;7.90;97.90;;;;;;5105128;28;20100;-75
2024/02/09 09:51:04;;;;;;;3.53;2.55;;;7.90;97.90;;;;;;5116211;28;20391;-75
2024/02/09 09:53:38;;;;;;;3.63;2.17;;;7.90;98.30;;;;;;5104441;28;20465;-75
2024/02/09 09:56:07;;;;;;;;;;;7.90;98.10;;;;;;5119935;27;20028;-73
2024/02/09 09:58:38;;;;;;;3.78;2.60;;;7.90;98.20;;;;;;5104592;28;19912;-74
2024/02/09 10:01:08;;;;;;;6.57;3.88;;;7.90;98.10;;;;;;5090499;28;20040;-75
2024/02/09 10:03:36;;;;;;;5.75;4.10;;;7.90;98.20;;;;;;5097830;28;20081;-74
2024/02/09 10:06:02;;;;;;;5.03;3.10;;;8.00;98.20;;;;;;5093206;28;20032;-75
2024/02/09 10:08:28;;;;;;;5.45;3.65;;;8.00;98.20;;;;;;5092223;28;20118;-74
2024/02/09 10:10:57;;;;;;;6.57;4.15;;;8.00;98.20;;;;;;5089961;28;20036;-75
2024/02/09 10:13:24;;;;;;;4.90;2.97;;;8.10;98.20;;;;;;5090970;28;20020;-75
2024/02/09 10:15:54;;;;;;;4.80;3.00;;;8.20;98.10;;;;;;5090127;28;20093;-74
2024/02/09 10:18:21;;;;;;;6.65;3.60;;;8.20;98.10;;;;;;5109441;28;20039;-75
2024/02/09 10:20:55;;;;;;;7.47;3.60;;;8.20;98.10;;;;;;5102674;28;20032;-75
2024/02/09 10:23:21;;;;;;;9.00;3.60;;;8.20;98.10;;;;;;5098412;28;20024;-75
2024/02/09 10:25:47;;;;;;;2.83;1.60;;;8.30;98.10;;;;;;5091551;28;20059;-74
2024/02/09 10:28:16;;;;;;;3.40;2.33;;;8.30;98.00;;;;;;5093046;28;20074;-75
2024/02/09 10:30:43;;;;;;;4.70;3.00;;;8.40;98.00;;;;;;5102009;28;20027;-74
2024/02/09 10:33:12;;;;;;;5.65;3.65;;;8.30;98.00;;;;;;5095766;28;20028;-75
2024/02/09 10:35:37;;;;;;;5.40;2.30;;;8.40;98.10;;;;;;5090728;28;20038;-75
2024/02/09 10:38:03;;;;;;;3.13;2.45;;;8.40;98.10;;;;;;5091596;28;20118;-75
2024/02/09 10:40:29;;;;;;;6.00;2.65;;;8.40;98.10;;;;;;5090177;28;20077;-75
2024/02/09 10:42:56;;;;;;;6.65;4.30;;;8.50;98.20;;;;;;5089490;28;20169;-75
2024/02/09 10:45:25;;;;;;;13.07;5.10;;;8.50;98.10;;;;;;5105487;28;20462;-75
2024/02/09 10:47:54;;;;;;;10.35;4.90;;;8.50;98.00;;;;;;5099002;28;20048;-73
2024/02/09 10:50:23;;;;;;;7.68;5.38;;;8.60;98.00;;;;;;5101906;28;20028;-74
2024/02/09 10:52:50;;;;;;;10.15;5.85;;;8.70;98.00;;;;;;5088271;28;20039;-73
2024/02/09 10:55:22;;;;;;;8.73;4.65;;;8.70;98.00;;;;;;5093868;28;20028;-75
2024/02/09 10:57:54;;;;;;;12.43;6.78;;;8.80;98.00;;;;;;5090221;28;20105;-75
2024/02/09 11:00:20;;;;;;;12.63;7.03;;;8.80;98.10;;;;;;5095733;28;20042;-74
2024/02/09 11:02:46;;;;;;;13.23;8.20;;;8.80;98.00;;;;;;5092978;28;20032;-75
2024/02/09 11:05:16;;;;;;;11.88;7.18;;;8.90;98.10;;;;;;5101175;28;20082;-74
2024/02/09 11:07:46;;;;;;;14.73;7.35;;;8.90;98.20;;;;;;5098192;28;20057;-74
2024/02/09 11:10:30;;;;;;;17.65;6.72;;;8.90;98.20;;;;;;5094103;28;20031;-74
2024/02/09 11:13:00;;;;;;;13.48;7.65;;;9.00;98.10;;;;;;5093718;28;21384;-74
2024/02/09 11:15:32;;;;;;;13.52;8.63;;;8.90;98.10;;;;;;5104557;28;20040;-74
2024/02/09 11:17:58;;;;;;;19.63;8.18;;;9.00;98.40;;;;;;5089037;28;20059;-75
2024/02/09 11:20:25;;;;;;;20.45;9.25;;;9.10;98.30;;;;;;5095573;28;20039;-75
2024/02/09 11:23:00;;;;;;;14.38;8.35;;;9.00;98.40;;;;;;5102417;28;20077;-74
2024/02/09 11:25:27;;;;;;;13.35;6.90;;;9.10;98.50;;;;;;5095083;28;20475;-75
2024/02/09 11:27:54;;;;;;;16.67;8.50;;;9.20;98.40;;;;;;5099739;28;20476;-75
2024/02/09 11:30:23;;;;;;;20.50;8.82;;;9.20;98.50;;;;;;5095124;28;20383;-75
2024/02/09 11:32:49;;;;;;;13.32;7.28;;;9.20;98.50;;;;;;5095966;28;20020;-76
2024/02/09 11:35:16;;;;;;;16.15;9.02;;;9.30;98.80;;;;;;5100078;28;20077;-76
2024/02/09 11:37:45;;;;;;;14.77;7.00;;;9.40;98.40;;;;;;5090581;28;20039;-75
2024/02/09 11:40:13;;;;;;;19.20;9.05;;;9.40;98.70;;;;;;5089336;28;20056;-76
2024/02/09 11:42:39;;;;;;;15.85;8.20;;;9.50;98.60;;;;;;5094636;28;20032;-78
2024/02/09 11:45:06;;;;;;;12.63;7.18;;;9.60;98.80;;;;;;5093091;28;20035;-77
2024/02/09 11:47:32;;;;;;;15.75;7.50;;;9.60;98.80;;;;;;5097807;28;20106;-78
2024/02/09 11:49:58;;;;;;;13.20;5.70;;;9.70;98.80;;;;;;5103584;28;20126;-80
2024/02/09 11:52:23;;;;;;;19.15;7.82;;;9.70;99.00;;;;;;5102222;28;20098;-76
2024/02/09 11:54:49;;;;;;;20.73;7.10;;;9.90;98.80;;;;;;5096674;28;20455;-78
2024/02/09 11:57:15;;;;;;;17.27;7.03;;;9.90;98.90;;;;;;5091599;28;20036;-77
2024/02/09 11:59:41;;;;;;;12.65;5.28;;;10.00;98.90;;;;;;5088979;28;20028;-78
2024/02/09 12:02:07;;;;;;;16.15;5.90;;;10.10;99.10;;;;;;5092528;28;20071;-79
2024/02/09 12:04:32;;;;;;;7.80;4.85;;;10.20;99.00;;;;;;5090738;28;20038;-77
2024/02/09 12:06:59;;;;;;;11.85;4.60;;;10.20;99.00;;;;;;5108411;28;20039;-79
2024/02/09 12:09:31;;;;;;;13.15;4.15;;;10.40;99.00;;;;;;5097355;28;20781;-77
2024/02/09 12:11:57;;;;;;;5.97;1.95;;;10.40;98.90;;;;;;5091575;28;20043;-78
2024/02/09 12:14:25;;;;;;;2.40;1.63;;;10.50;98.30;;;;;;5097751;28;20040;-79
2024/02/09 12:16:51;;;;;;;1.75;1.17;;;10.60;98.00;;;;;;5090331;28;20040;-79
2024/02/09 12:19:17;;;;;;;1.35;1.23;;;10.60;97.80;;;;;;5097127;28;20402;-78
2024/02/09 12:21:45;;;;;;;0.88;0.88;;;10.60;98.30;;;;;;5103558;28;20498;-80
2024/02/09 12:24:11;;;;;;;2.80;1.80;;;10.60;98.50;;;;;;5102687;28;20146;-83
2024/02/09 12:26:38;;;;;;;4.82;1.55;;;10.60;98.70;;;;;;5100448;28;20028;-74
2024/02/09 12:29:12;;;;;;;9.57;1.25;;;10.60;98.90;;;;;;5091556;28;20051;-78
2024/02/09 12:31:43;;;;;;;2.55;1.63;;;10.60;99.30;;;;;;5086885;28;20040;-82
2024/02/09 12:34:09;;;;;;;1.15;1.05;;;10.60;99.60;;;;;;5105115;28;20157;-78
2024/02/09 12:36:36;;;;;;;0.95;0.95;;;10.70;99.70;;;;;;5091629;28;20054;-83
2024/02/09 12:39:07;;;;;;;1.17;0.88;;;10.70;99.90;;;;;;5087461;28;20036;-73
2024/02/09 12:41:39;;;;;;;3.10;1.63;;;10.70;99.90;;;;;;5088958;28;20039;-82
2024/02/09 12:44:08;;;;;;;6.03;3.72;;;10.80;99.90;;;;;;5102620;28;20023;-83
2024/02/09 12:46:34;;;;;;;1.48;1.25;;;10.80;99.90;;;;;;5090520;28;20479;-82
2024/02/09 12:49:01;;;;;;;3.00;1.33;;;10.80;99.90;;;;;;5087671;28;20044;-82
2024/02/09 12:51:31;;;;;;;1.35;1.25;;;10.90;99.90;;;;;;5088441;28;20480;-82
2024/02/09 12:53:57;;;;;;;0.60;0.60;;;10.80;99.90;;;;;;5092044;28;20032;-83
2024/02/09 12:56:23;;;;;;;2.47;1.52;;;10.90;99.90;;;;;;5103886;28;20027;-82
2024/02/09 12:58:50;;;;;;;2.67;1.33;;;11.00;99.90;;;;;;5098830;28;20506;-82
2024/02/09 13:01:18;;;;;;;2.90;1.65;;;11.00;99.90;;;;;;5086111;28;20068;-81
2024/02/09 13:03:44;;;;;;;4.80;1.40;;;11.10;99.90;;;;;;5088262;28;20043;-81
2024/02/09 13:06:09;;;;;;;1.90;1.30;;;11.10;99.90;;;;;;5089169;28;20040;-84
2024/02/09 13:08:36;;;;;;;2.97;1.63;;;11.20;99.90;;;;;;5091213;28;20043;-86
2024/02/09 13:11:06;;;;;;;2.13;1.25;;;11.30;99.90;;;;;;5090437;28;20035;-86
2024/02/09 13:13:32;;;;;;;1.35;0.70;;;11.30;99.90;;;;;;5093885;28;20119;-86
2024/02/09 13:15:57;;;;;;;0.77;0.77;;;11.40;99.90;;;;;;5096964;28;20111;-83
2024/02/09 13:18:23;;;;;;;2.25;1.80;;;11.50;99.90;;;;;;5100898;28;20023;-84
2024/02/09 13:20:49;;;;;;;5.22;1.83;;;11.50;99.90;;;;;;5104707;28;20038;-84
2024/02/09 13:23:15;;;;;;;2.75;1.52;;;11.60;99.90;;;;;;5093455;28;20035;-83
2024/02/09 13:25:41;;;;;;;3.65;1.92;;;11.60;99.90;;;;;;5094830;28;20034;-83
2024/02/09 13:28:08;;;;;;;6.97;2.22;;;11.70;99.90;;;;;;5089799;28;20077;-83
2024/02/09 13:30:34;;;;;;;3.78;1.65;;;11.70;99.90;;;;;;5101892;28;20073;-84
2024/02/09 13:33:00;;;;;;;2.10;1.70;;;11.90;99.90;;;;;;5090861;28;21103;-83
2024/02/09 13:35:26;;;;;;;0.77;0.77;;;11.90;99.90;;;;;;5101205;28;20019;-83
2024/02/09 13:37:53;;;;;;;4.22;1.65;;;12.00;99.90;;;;;;5097541;28;20024;-83
2024/02/09 13:40:19;;;;;;;10.32;3.22;;;12.00;99.90;;;;;;5098717;28;20031;-83
2024/02/09 13:42:49;;;;;;;5.68;3.25;;;12.10;99.90;;;;;;5090708;28;20035;-84
2024/02/09 13:45:17;;;;;;;4.78;1.77;;;12.20;99.90;;;;;;5093018;28;20043;-83
2024/02/09 13:47:47;;;;;;;5.57;2.20;;;12.20;99.90;;;;;;5106774;28;20027;-82
2024/02/09 13:50:14;;;;;;;1.30;1.20;;;12.20;99.90;;;;;;5095631;28;20407;-83
2024/02/09 13:52:45;;;;;;;3.35;2.05;;;12.40;99.90;;;;;;5094933;28;20146;-83
2024/02/09 13:55:17;;;;;;;0.52;0.52;;;12.40;99.90;;;;;;5094228;28;20482;-84
2024/02/09 13:57:44;;;;;;;3.97;2.28;;;12.30;99.90;;;;;;5096562;28;20499;-83
2024/02/09 14:00:12;;;;;;;11.20;1.63;;;12.30;99.90;;;;;;5102549;28;20463;-83
2024/02/09 14:02:38;;;;;;;3.58;2.00;;;12.30;99.90;;;;;;5092038;28;20031;-84
2024/02/09 14:05:04;;;;;;;1.30;1.10;;;12.20;99.90;;;;;;5095971;28;20047;-82
2024/02/09 14:07:31;;;;;;;2.28;1.92;;;12.20;99.90;;;;;;5094422;28;20106;-81
2024/02/09 14:09:57;;;;;;;1.38;1.27;;;12.20;99.90;;;;;;5093729;28;20048;-83
2024/02/09 14:12:24;;;;;;;2.75;1.90;;;12.30;99.90;;;;;;5096132;28;20043;-83
2024/02/09 14:14:50;;;;;;;1.15;1.05;;;12.30;99.90;;;;;;5096867;28;20167;-82
2024/02/09 14:17:16;;;;;;;4.20;1.90;;;12.30;99.90;;;;;;5097178;28;20475;-81
2024/02/09 14:19:45;;;;;;;1.70;1.35;;;12.30;99.90;;;;;;5094808;28;20039;-86
2024/02/09 14:22:12;;;;;;;6.13;1.23;;;12.40;99.90;;;;;;5091353;28;20653;-82
2024/02/09 14:24:38;;;;;;;3.90;1.92;;;12.40;99.90;;;;;;5096175;28;20110;-82
2024/02/09 14:27:11;;;;;;;2.75;1.42;;;12.50;99.90;;;;;;5093863;28;20066;-81
2024/02/09 14:29:39;;;;;;;0.95;0.75;;;12.50;99.90;;;;;;5106525;28;20044;-82
2024/02/09 14:32:08;;;;;;;6.13;1.45;;;12.50;99.90;;;;;;5099391;28;20032;-82
2024/02/09 14:34:34;;;;;;;1.38;1.25;;;12.60;99.90;;;;;;5092668;28;20038;-83
2024/02/09 14:37:00;;;;;;;1.27;1.17;;;12.60;99.90;;;;;;5097070;28;20024;-82
2024/02/09 14:39:28;;;;;;;3.88;2.10;;;12.70;99.90;;;;;;5094145;28;20502;-81